Time;durP1;ratioP1;P1;durP2;ratioP2;P2;SDS_P1;SDS_P2;PMS_P1;PMS_P2;Temp;Humidity;BMP_temperature;BMP_pressure;BME280_temperature;BME280_humidity;BME280_pressure;Samples;Min_cycle;Max_cycle;Signal;HPM_P1;HPM_P2
2020/12/16 00:01:53;;;;;;;9.70;8.80;;;9.70;99.90;;;;;;5078600;28;20163;-58
2020/12/16 00:04:22;;;;;;;10.37;9.33;;;9.60;99.90;;;;;;5072080;28;20175;-57
2020/12/16 00:06:48;;;;;;;9.77;8.80;;;9.50;99.90;;;;;;5072491;28;20499;-58
2020/12/16 00:09:14;;;;;;;9.83;8.80;;;9.50;99.90;;;;;;5075756;28;20513;-58
2020/12/16 00:11:39;;;;;;;10.70;9.70;;;9.50;99.90;;;;;;5076212;28;20490;-58
2020/12/16 00:14:05;;;;;;;9.90;8.90;;;9.40;99.90;;;;;;5076341;28;20606;-59
2020/12/16 00:16:32;;;;;;;10.70;9.60;;;9.40;99.90;;;;;;5075922;28;20175;-58
2020/12/16 00:18:58;;;;;;;12.40;11.10;;;9.50;99.90;;;;;;5075445;28;20181;-58
2020/12/16 00:21:24;;;;;;;9.80;8.50;;;9.60;99.90;;;;;;5076305;28;20436;-56
2020/12/16 00:23:49;;;;;;;11.10;10.10;;;9.40;99.90;;;;;;5075978;28;20407;-58
2020/12/16 00:26:16;;;;;;;11.10;9.97;;;9.40;99.90;;;;;;5075885;28;20666;-52
2020/12/16 00:28:43;;;;;;;9.83;8.90;;;9.40;99.90;;;;;;5075965;28;20431;-53
2020/12/16 00:31:11;;;;;;;12.50;11.30;;;9.20;99.90;;;;;;5075888;28;20954;-55
2020/12/16 00:33:37;;;;;;;13.70;12.23;;;9.10;99.90;;;;;;5075602;28;20802;-55
2020/12/16 00:36:03;;;;;;;9.97;8.97;;;9.00;99.90;;;;;;5075799;28;20560;-53
2020/12/16 00:38:28;;;;;;;10.70;9.07;;;9.10;99.90;;;;;;5075640;28;20660;-56
2020/12/16 00:40:54;;;;;;;11.07;9.97;;;9.20;99.90;;;;;;5076047;28;20203;-54
2020/12/16 00:43:19;;;;;;;9.60;8.70;;;9.20;99.90;;;;;;5075709;28;20179;-53
2020/12/16 00:45:45;;;;;;;10.43;9.43;;;9.20;99.90;;;;;;5075860;28;20539;-58
2020/12/16 00:48:11;;;;;;;12.53;11.33;;;9.20;99.90;;;;;;5074993;28;20195;-57
2020/12/16 00:50:36;;;;;;;12.67;11.40;;;9.20;99.90;;;;;;5075767;28;20585;-57
2020/12/16 00:53:02;;;;;;;11.23;10.17;;;9.20;99.90;;;;;;5096638;28;20202;-56
2020/12/16 00:55:27;;;;;;;10.40;9.40;;;9.20;99.90;;;;;;5095791;28;20652;-59
2020/12/16 00:57:54;;;;;;;11.90;10.23;;;9.20;99.90;;;;;;5081073;28;20211;-55
2020/12/16 01:00:20;;;;;;;12.27;11.23;;;9.00;99.90;;;;;;5074358;28;20173;-58
2020/12/16 01:02:47;;;;;;;11.60;10.40;;;9.00;99.90;;;;;;5075347;28;20539;-59
2020/12/16 01:05:17;;;;;;;10.87;9.57;;;9.10;99.90;;;;;;5075299;28;20176;-58
2020/12/16 01:07:42;;;;;;;13.23;11.93;;;9.10;99.90;;;;;;5076054;28;20990;-56
2020/12/16 01:10:12;;;;;;;12.87;11.63;;;9.10;99.90;;;;;;5075375;28;20494;-58
2020/12/16 01:12:39;;;;;;;12.40;11.33;;;9.10;99.90;;;;;;5075493;28;20516;-57
2020/12/16 01:15:10;;;;;;;11.97;10.87;;;9.20;99.90;;;;;;5075426;28;20407;-58
2020/12/16 01:17:40;;;;;;;11.30;10.27;;;9.20;99.90;;;;;;5075006;28;20452;-54
2020/12/16 01:20:11;;;;;;;11.33;10.23;;;9.20;99.90;;;;;;5073829;28;20466;-55
2020/12/16 01:22:42;;;;;;;11.37;10.37;;;9.30;99.90;;;;;;5074729;28;20416;-57
2020/12/16 01:25:08;;;;;;;11.10;10.10;;;9.40;99.90;;;;;;5074895;28;20425;-57
2020/12/16 01:27:34;;;;;;;12.90;11.70;;;9.40;99.90;;;;;;5075180;28;20495;-57
2020/12/16 01:30:00;;;;;;;10.90;9.80;;;9.40;99.90;;;;;;5075099;28;20407;-57
2020/12/16 01:32:26;;;;;;;13.70;12.40;;;9.50;99.90;;;;;;5074952;28;20165;-64
2020/12/16 01:34:53;;;;;;;10.30;9.40;;;9.60;99.90;;;;;;5074820;28;20994;-56
2020/12/16 01:37:19;;;;;;;8.80;8.00;;;9.70;99.90;;;;;;5075079;28;20439;-56
2020/12/16 01:39:45;;;;;;;12.63;9.80;;;9.80;99.90;;;;;;5074387;28;20439;-54
2020/12/16 01:42:13;;;;;;;14.43;13.13;;;9.90;99.90;;;;;;5074210;28;20536;-58
2020/12/16 01:44:39;;;;;;;12.13;10.87;;;9.90;99.90;;;;;;5074522;28;20516;-57
2020/12/16 01:47:04;;;;;;;11.40;10.20;;;9.90;99.90;;;;;;5074377;28;20438;-54
2020/12/16 01:49:30;;;;;;;11.43;10.43;;;9.80;99.90;;;;;;5073871;28;20595;-58
2020/12/16 01:51:58;;;;;;;10.53;9.53;;;9.90;99.90;;;;;;5074522;28;20259;-55
2020/12/16 01:54:25;;;;;;;10.50;9.43;;;9.90;99.90;;;;;;5074115;28;20240;-57
2020/12/16 01:56:54;;;;;;;9.00;8.17;;;10.00;99.90;;;;;;5074464;28;20774;-58
2020/12/16 01:59:20;;;;;;;10.20;9.30;;;9.90;99.90;;;;;;5074319;28;20906;-56
2020/12/16 02:01:50;;;;;;;12.70;11.10;;;10.00;99.90;;;;;;5074096;28;20397;-56
2020/12/16 02:04:19;;;;;;;10.70;9.60;;;9.90;99.90;;;;;;5073710;28;20171;-58
2020/12/16 02:06:48;;;;;;;11.07;10.17;;;9.90;99.90;;;;;;5074061;28;20831;-58
2020/12/16 02:09:13;;;;;;;9.97;9.07;;;9.90;99.90;;;;;;5073818;28;20438;-59
2020/12/16 02:11:40;;;;;;;8.07;7.43;;;9.90;99.90;;;;;;5073751;28;20409;-59
2020/12/16 02:14:10;;;;;;;11.23;10.13;;;9.90;99.90;;;;;;5073663;28;20673;-58
2020/12/16 02:16:37;;;;;;;10.53;9.47;;;10.00;99.90;;;;;;5073598;28;20463;-60
2020/12/16 02:19:08;;;;;;;10.90;9.90;;;10.00;99.90;;;;;;5072629;28;20496;-55
2020/12/16 02:21:34;;;;;;;9.80;9.00;;;10.00;99.90;;;;;;5073932;28;20876;-55
2020/12/16 02:24:10;;;;;;;8.43;7.63;;;10.10;99.90;;;;;;5073612;28;20410;-55
2020/12/16 02:26:38;;;;;;;12.77;9.93;;;10.10;99.90;;;;;;5073412;28;20525;-54
2020/12/16 02:29:05;;;;;;;10.10;9.10;;;10.00;99.90;;;;;;5073928;28;20830;-59
2020/12/16 02:31:35;;;;;;;10.80;9.33;;;10.10;99.90;;;;;;5073309;28;20904;-54
2020/12/16 02:34:02;;;;;;;14.63;9.30;;;10.20;99.90;;;;;;5073083;28;20922;-53
2020/12/16 02:36:27;;;;;;;10.10;9.10;;;10.00;99.90;;;;;;5073242;28;20779;-57
2020/12/16 02:38:54;;;;;;;8.00;7.33;;;10.10;99.90;;;;;;5072822;28;20410;-55
2020/12/16 02:41:20;;;;;;;10.03;9.03;;;10.20;99.90;;;;;;5073385;28;20169;-59
2020/12/16 02:43:46;;;;;;;10.30;9.40;;;10.20;99.90;;;;;;5089893;28;20497;-57
2020/12/16 02:46:12;;;;;;;9.10;8.20;;;10.30;99.90;;;;;;5093747;28;20499;-58
2020/12/16 02:48:37;;;;;;;10.97;9.83;;;10.40;99.90;;;;;;5092945;28;20629;-58
2020/12/16 02:51:03;;;;;;;9.63;8.63;;;10.40;99.90;;;;;;5092220;28;20543;-59
2020/12/16 02:53:28;;;;;;;10.70;9.60;;;10.40;99.90;;;;;;5091822;28;20283;-58
2020/12/16 02:55:54;;;;;;;9.70;8.80;;;10.30;99.90;;;;;;5093397;28;20165;-57
2020/12/16 02:58:20;;;;;;;10.03;9.03;;;10.30;99.90;;;;;;5087204;28;20197;-58
2020/12/16 03:00:45;;;;;;;10.40;9.30;;;10.30;99.90;;;;;;5093648;28;20175;-58
2020/12/16 03:03:11;;;;;;;10.20;9.13;;;10.30;99.90;;;;;;5092578;28;20221;-60
2020/12/16 03:05:37;;;;;;;10.63;9.63;;;10.30;99.90;;;;;;5093069;28;20168;-58
2020/12/16 03:08:06;;;;;;;10.80;9.80;;;10.40;99.90;;;;;;5093281;28;20188;-59
2020/12/16 03:10:31;;;;;;;11.63;10.30;;;10.40;99.90;;;;;;5093530;28;20535;-56
2020/12/16 03:12:57;;;;;;;10.87;9.77;;;10.30;99.90;;;;;;5093301;28;20444;-57
2020/12/16 03:15:22;;;;;;;10.93;9.97;;;10.30;99.90;;;;;;5093761;28;20612;-58
2020/12/16 03:17:48;;;;;;;11.57;10.57;;;10.30;99.90;;;;;;5093336;28;20764;-58
2020/12/16 03:20:14;;;;;;;11.87;9.80;;;10.30;99.90;;;;;;5093129;28;20185;-58
2020/12/16 03:22:39;;;;;;;12.57;11.37;;;10.30;99.90;;;;;;5093346;28;20663;-57
2020/12/16 03:25:05;;;;;;;11.13;10.10;;;10.40;99.90;;;;;;5092414;28;20165;-58
2020/12/16 03:27:30;;;;;;;10.40;9.50;;;10.40;99.90;;;;;;5081998;28;20752;-57
2020/12/16 03:29:56;;;;;;;11.87;10.80;;;10.40;99.90;;;;;;5072942;28;20163;-58
2020/12/16 03:32:21;;;;;;;10.50;9.60;;;10.50;99.90;;;;;;5072977;28;20204;-58
2020/12/16 03:34:47;;;;;;;15.70;14.03;;;10.50;99.90;;;;;;5072417;28;20200;-59
2020/12/16 03:37:12;;;;;;;13.23;12.00;;;10.40;99.90;;;;;;5073485;28;20239;-56
2020/12/16 03:39:38;;;;;;;13.20;11.90;;;10.30;99.90;;;;;;5073613;28;20169;-57
2020/12/16 03:42:04;;;;;;;9.77;8.97;;;10.20;99.90;;;;;;5073107;28;20174;-58
2020/12/16 03:44:30;;;;;;;11.40;10.30;;;10.10;99.90;;;;;;5076806;28;20175;-58
2020/12/16 03:46:55;;;;;;;12.00;10.73;;;10.20;99.90;;;;;;5087509;28;20608;-57
2020/12/16 03:49:21;;;;;;;11.27;10.27;;;10.30;99.90;;;;;;5096567;28;20425;-58
2020/12/16 03:51:55;;;;;;;12.07;10.83;;;10.30;99.90;;;;;;5097156;28;20223;-58
2020/12/16 03:54:22;;;;;;;11.70;10.60;;;10.30;99.90;;;;;;5096774;28;20195;-55
2020/12/16 03:56:48;;;;;;;16.73;12.50;;;10.20;99.90;;;;;;5091675;28;20801;-56
2020/12/16 03:59:14;;;;;;;14.73;13.43;;;10.20;99.90;;;;;;5076583;28;20904;-54
2020/12/16 04:01:40;;;;;;;15.10;13.70;;;10.10;99.90;;;;;;5076869;28;20408;-57
2020/12/16 04:04:05;;;;;;;15.27;13.77;;;10.10;99.90;;;;;;5075364;28;20168;-58
2020/12/16 04:06:31;;;;;;;12.63;11.43;;;10.00;99.90;;;;;;5076309;28;20260;-54
2020/12/16 04:08:57;;;;;;;12.03;10.93;;;9.80;99.90;;;;;;5076359;28;20223;-56
2020/12/16 04:11:22;;;;;;;12.40;11.10;;;9.80;99.90;;;;;;5076572;28;20700;-54
2020/12/16 04:13:48;;;;;;;14.83;13.17;;;9.90;99.90;;;;;;5076289;28;20278;-58
2020/12/16 04:16:18;;;;;;;10.90;9.80;;;9.90;99.90;;;;;;5076579;28;20195;-53
2020/12/16 04:18:43;;;;;;;11.03;9.90;;;10.00;99.90;;;;;;5075533;28;20555;-54
2020/12/16 04:21:10;;;;;;;11.67;10.43;;;10.00;99.90;;;;;;5075975;28;20415;-58
2020/12/16 04:23:37;;;;;;;13.60;12.23;;;10.00;99.90;;;;;;5074500;28;20171;-60
2020/12/16 04:26:03;;;;;;;11.87;10.77;;;10.00;99.90;;;;;;5075642;28;20411;-58
2020/12/16 04:28:29;;;;;;;9.97;8.97;;;9.90;99.90;;;;;;5075737;28;20435;-58
2020/12/16 04:30:55;;;;;;;12.07;10.93;;;9.90;99.90;;;;;;5075779;28;20425;-58
2020/12/16 04:33:21;;;;;;;14.47;13.17;;;9.80;99.90;;;;;;5076551;28;20197;-58
2020/12/16 04:35:47;;;;;;;10.33;9.43;;;9.80;99.90;;;;;;5096950;28;20898;-58
2020/12/16 04:38:12;;;;;;;12.00;10.90;;;9.80;99.90;;;;;;5095839;28;20187;-57
2020/12/16 04:40:39;;;;;;;10.97;9.97;;;9.70;99.90;;;;;;5095780;28;20169;-58
2020/12/16 04:43:09;;;;;;;12.40;11.20;;;9.70;99.90;;;;;;5095694;28;20225;-57
2020/12/16 04:45:36;;;;;;;10.13;9.23;;;9.50;99.90;;;;;;5095694;28;20865;-58
2020/12/16 04:48:03;;;;;;;13.13;11.70;;;9.50;99.90;;;;;;5095487;28;20426;-58
2020/12/16 04:50:29;;;;;;;13.47;12.27;;;9.30;99.90;;;;;;5095763;28;20398;-57
2020/12/16 04:53:01;;;;;;;15.77;11.53;;;9.30;99.90;;;;;;5095430;28;20408;-58
2020/12/16 04:55:27;;;;;;;13.83;12.50;;;9.20;99.90;;;;;;5096126;28;20151;-57
2020/12/16 04:57:53;;;;;;;13.53;12.33;;;9.20;99.90;;;;;;5081605;28;20448;-58
2020/12/16 05:00:20;;;;;;;12.93;11.73;;;9.20;99.90;;;;;;5075425;28;20772;-56
2020/12/16 05:03:00;;;;;;;12.67;11.37;;;9.10;99.90;;;;;;5075536;28;20171;-57
2020/12/16 05:05:27;;;;;;;12.93;11.83;;;9.00;99.90;;;;;;5075919;28;20519;-57
2020/12/16 05:07:53;;;;;;;13.70;12.33;;;8.90;99.90;;;;;;5076546;28;20425;-58
2020/12/16 05:10:32;;;;;;;15.80;14.43;;;8.80;99.90;;;;;;5075238;28;20400;-56
2020/12/16 05:13:08;;;;;;;13.70;12.50;;;8.60;99.90;;;;;;5075203;28;20818;-57
2020/12/16 05:15:37;;;;;;;14.50;13.20;;;8.50;99.90;;;;;;5075177;28;20466;-58
2020/12/16 05:18:04;;;;;;;10.27;9.30;;;8.50;99.90;;;;;;5075323;28;20784;-56
2020/12/16 05:20:29;;;;;;;10.90;9.90;;;8.50;99.90;;;;;;5074443;28;20498;-58
2020/12/16 05:23:03;;;;;;;12.23;11.13;;;8.60;99.90;;;;;;5074833;28;20883;-60
2020/12/16 05:25:28;;;;;;;9.73;8.93;;;8.60;99.90;;;;;;5075640;28;20602;-57
2020/12/16 05:27:54;;;;;;;11.63;10.67;;;8.70;99.90;;;;;;5074612;28;20439;-57
2020/12/16 05:30:20;;;;;;;11.63;10.50;;;8.60;99.90;;;;;;5075137;28;20226;-58
2020/12/16 05:32:46;;;;;;;12.60;11.40;;;8.50;99.90;;;;;;5074731;28;20638;-58
2020/12/16 05:35:24;;;;;;;10.70;9.70;;;8.50;99.90;;;;;;5074293;28;20583;-56
2020/12/16 05:37:50;;;;;;;14.93;13.43;;;8.50;99.90;;;;;;5074481;28;20518;-57
2020/12/16 05:40:20;;;;;;;12.20;11.10;;;8.60;99.90;;;;;;5074635;28;20475;-58
2020/12/16 05:42:48;;;;;;;12.90;11.63;;;8.50;99.90;;;;;;5074873;28;20526;-58
2020/12/16 05:45:22;;;;;;;13.43;12.30;;;8.50;99.90;;;;;;5085086;28;20425;-54
2020/12/16 05:48:02;;;;;;;11.77;10.67;;;8.50;99.90;;;;;;5094551;28;20515;-58
2020/12/16 05:50:37;;;;;;;10.93;9.97;;;8.60;99.90;;;;;;5094323;28;20390;-57
2020/12/16 05:53:22;;;;;;;11.60;10.50;;;8.60;99.90;;;;;;5094845;28;20434;-57
2020/12/16 05:55:58;;;;;;;12.33;11.23;;;8.60;99.90;;;;;;5094362;28;20395;-57
2020/12/16 05:58:26;;;;;;;12.43;11.30;;;8.70;99.90;;;;;;5075733;28;20825;-55
2020/12/16 06:00:57;;;;;;;13.67;12.37;;;8.70;99.90;;;;;;5074131;28;20409;-54
2020/12/16 06:03:32;;;;;;;16.70;15.00;;;8.80;99.90;;;;;;5086213;28;20400;-54
2020/12/16 06:06:01;;;;;;;11.90;10.90;;;8.80;99.90;;;;;;5094137;28;20802;-57
2020/12/16 06:08:35;;;;;;;12.90;11.53;;;8.70;99.90;;;;;;5094198;28;20437;-56
2020/12/16 06:11:04;;;;;;;13.20;11.90;;;8.80;99.90;;;;;;5093546;28;20496;-59
2020/12/16 06:13:30;;;;;;;14.40;13.10;;;8.70;99.90;;;;;;5089827;28;20457;-57
2020/12/16 06:16:00;;;;;;;12.53;11.27;;;8.90;99.90;;;;;;5082717;28;20835;-58
2020/12/16 06:18:31;;;;;;;12.63;11.43;;;8.90;99.90;;;;;;5073388;28;20194;-57
2020/12/16 06:20:58;;;;;;;11.77;10.77;;;8.90;99.90;;;;;;5073603;28;20477;-58
2020/12/16 06:23:32;;;;;;;11.13;10.07;;;8.90;99.90;;;;;;5073905;28;20417;-58
2020/12/16 06:26:00;;;;;;;11.37;10.30;;;9.00;99.90;;;;;;5090762;28;20787;-58
2020/12/16 06:28:26;;;;;;;11.20;10.30;;;9.10;99.90;;;;;;5076535;28;20824;-58
2020/12/16 06:31:09;;;;;;;10.80;9.80;;;9.10;99.90;;;;;;5073549;28;20410;-58
2020/12/16 06:34:10;;;;;;;10.70;9.80;;;9.20;99.90;;;;;;5073339;28;20187;-65
2020/12/16 06:36:42;;;;;;;11.00;10.07;;;9.20;99.90;;;;;;5073982;28;20423;-58
2020/12/16 06:39:18;;;;;;;9.67;8.87;;;9.00;99.90;;;;;;5073316;28;20494;-57
2020/12/16 06:41:52;;;;;;;13.10;11.97;;;9.10;99.90;;;;;;5073246;28;20396;-53
2020/12/16 06:44:18;;;;;;;12.00;10.90;;;9.10;99.90;;;;;;5073664;28;20403;-52
2020/12/16 06:46:48;;;;;;;24.77;22.37;;;9.20;99.90;;;;;;5073604;28;20497;-58
2020/12/16 06:49:23;;;;;;;17.00;15.30;;;9.30;99.90;;;;;;5072888;28;20394;-54
2020/12/16 06:51:49;;;;;;;12.77;11.40;;;9.30;99.90;;;;;;5073671;28;20384;-55
2020/12/16 06:54:16;;;;;;;13.20;12.00;;;9.10;99.90;;;;;;5073241;28;20533;-53
2020/12/16 06:56:44;;;;;;;12.50;11.40;;;9.20;99.90;;;;;;5073367;28;20433;-56
2020/12/16 06:59:12;;;;;;;12.53;11.33;;;9.30;99.90;;;;;;5072224;28;20411;-57
2020/12/16 07:01:38;;;;;;;11.73;10.70;;;9.30;99.90;;;;;;5073060;28;20405;-57
2020/12/16 07:04:11;;;;;;;12.00;10.90;;;9.40;99.90;;;;;;5072606;28;20514;-57
2020/12/16 07:06:39;;;;;;;17.27;15.43;;;9.40;99.90;;;;;;5073190;28;20480;-58
2020/12/16 07:09:20;;;;;;;21.70;19.40;;;9.40;99.90;;;;;;5073847;28;20463;-54
2020/12/16 07:11:50;;;;;;;19.17;17.13;;;9.30;99.90;;;;;;5073558;28;20394;-55
2020/12/16 07:14:22;;;;;;;14.67;13.27;;;9.20;99.90;;;;;;5073125;28;20455;-56
2020/12/16 07:16:48;;;;;;;11.00;9.87;;;9.20;99.90;;;;;;5074437;28;20467;-55
2020/12/16 07:19:28;;;;;;;11.27;10.27;;;9.20;99.90;;;;;;5076427;28;20425;-63
2020/12/16 07:21:57;;;;;;;10.77;9.67;;;9.30;99.90;;;;;;5080088;28;20429;-66
2020/12/16 07:24:24;;;;;;;10.87;9.90;;;9.30;99.90;;;;;;5083290;28;20433;-60
2020/12/16 07:26:55;;;;;;;13.30;12.00;;;9.10;99.90;;;;;;5092105;28;20770;-63
2020/12/16 07:29:28;;;;;;;12.27;11.03;;;9.00;99.90;;;;;;5088209;28;20450;-63
2020/12/16 07:32:05;;;;;;;11.93;10.70;;;8.90;99.90;;;;;;5096957;28;20396;-63
2020/12/16 07:34:42;;;;;;;10.47;9.57;;;8.90;99.90;;;;;;5096359;28;20824;-61
2020/12/16 07:37:08;;;;;;;11.50;10.40;;;9.10;99.90;;;;;;5097050;28;20421;-63
2020/12/16 07:39:34;;;;;;;14.70;13.20;;;8.90;99.90;;;;;;5095984;28;20424;-62
2020/12/16 07:42:00;;;;;;;14.53;12.97;;;8.80;99.90;;;;;;5081761;28;20773;-62
2020/12/16 07:44:27;;;;;;;17.93;14.57;;;8.90;99.90;;;;;;5076851;28;20486;-62
2020/12/16 07:47:00;;;;;;;15.70;12.87;;;9.10;99.90;;;;;;5076520;28;20430;-62
2020/12/16 07:49:27;;;;;;;17.93;14.80;;;9.10;99.90;;;;;;5077603;28;20450;-60
2020/12/16 07:52:02;;;;;;;14.80;13.20;;;9.20;99.90;;;;;;5080206;28;20426;-61
2020/12/16 07:54:29;;;;;;;11.67;10.50;;;9.10;99.90;;;;;;5079383;28;20492;-61
2020/12/16 07:56:55;;;;;;;11.53;9.80;;;9.00;99.90;;;;;;5077647;28;20435;-59
2020/12/16 07:59:30;;;;;;;12.70;11.30;;;9.00;99.90;;;;;;5078030;28;20411;-58
2020/12/16 08:02:15;;;;;;;10.60;9.30;;;9.20;99.90;;;;;;5078064;28;20153;-60
2020/12/16 08:04:42;;;;;;;12.87;11.70;;;9.30;99.90;;;;;;5078332;28;20418;-60
2020/12/16 08:07:17;;;;;;;10.30;9.40;;;9.10;99.90;;;;;;5076560;28;20426;-62
2020/12/16 08:09:51;;;;;;;10.60;9.60;;;9.00;99.90;;;;;;5076346;28;20396;-62
2020/12/16 08:12:18;;;;;;;13.10;10.33;;;8.80;99.90;;;;;;5083460;28;20419;-63
2020/12/16 08:14:44;;;;;;;9.33;8.40;;;8.80;99.90;;;;;;5096580;28;20456;-61
2020/12/16 08:17:10;;;;;;;8.90;8.00;;;8.90;99.90;;;;;;5107796;27;20429;-62
2020/12/16 08:19:36;;;;;;;8.83;7.90;;;9.20;99.90;;;;;;5095716;28;20440;-61
2020/12/16 08:22:15;;;;;;;10.90;9.93;;;9.30;99.90;;;;;;5106976;28;20771;-62
2020/12/16 08:24:41;;;;;;;10.80;8.50;;;9.50;99.90;;;;;;5113452;28;20166;-61
2020/12/16 08:27:07;;;;;;;9.17;7.73;;;9.50;99.90;;;;;;5101078;28;20445;-58
2020/12/16 08:29:36;;;;;;;10.17;9.10;;;9.60;99.90;;;;;;5079406;28;20422;-57
2020/12/16 08:32:05;;;;;;;9.70;8.77;;;9.80;99.90;;;;;;5096274;28;20420;-61
2020/12/16 08:34:39;;;;;;;9.00;8.17;;;9.80;99.90;;;;;;5109250;28;21028;-61
2020/12/16 08:37:10;;;;;;;9.73;8.83;;;9.70;99.90;;;;;;5116481;28;20428;-61
2020/12/16 08:39:41;;;;;;;9.80;8.47;;;9.70;99.90;;;;;;5116715;28;20755;-56
2020/12/16 08:42:10;;;;;;;8.50;7.70;;;9.60;99.90;;;;;;5116802;27;20745;-59
2020/12/16 08:44:35;;;;;;;8.73;7.90;;;9.50;99.90;;;;;;5116788;28;20443;-61
2020/12/16 08:47:01;;;;;;;10.00;8.23;;;9.50;99.90;;;;;;5099712;28;20467;-61
2020/12/16 08:49:26;;;;;;;9.50;7.70;;;9.60;99.90;;;;;;5075588;28;20175;-59
2020/12/16 08:51:52;;;;;;;9.03;8.13;;;9.80;99.90;;;;;;5075420;28;20256;-62
2020/12/16 08:54:26;;;;;;;8.40;7.70;;;9.80;99.90;;;;;;5075541;28;20205;-62
2020/12/16 08:56:54;;;;;;;8.23;7.30;;;9.70;99.90;;;;;;5075246;28;20267;-60
2020/12/16 08:59:22;;;;;;;9.10;8.30;;;9.80;99.90;;;;;;5075537;28;20407;-60
2020/12/16 09:02:07;;;;;;;9.00;8.20;;;9.90;99.90;;;;;;5082137;28;20502;-59
2020/12/16 09:04:34;;;;;;;7.80;6.70;;;10.00;99.90;;;;;;5094364;28;20450;-59
2020/12/16 09:07:07;;;;;;;11.00;9.43;;;10.20;99.90;;;;;;5088384;28;20483;-60
2020/12/16 09:09:38;;;;;;;8.17;7.37;;;10.20;99.90;;;;;;5091739;28;20501;-58
2020/12/16 09:12:10;;;;;;;8.40;7.30;;;10.50;99.90;;;;;;5115416;28;20402;-61
2020/12/16 09:14:36;;;;;;;9.57;8.67;;;10.60;99.90;;;;;;5115211;28;20490;-60
2020/12/16 09:17:08;;;;;;;8.17;7.37;;;10.50;99.90;;;;;;5113072;28;20784;-63
2020/12/16 09:19:35;;;;;;;7.87;7.20;;;10.40;99.90;;;;;;5094106;28;20192;-62
2020/12/16 09:22:01;;;;;;;9.57;8.13;;;10.20;99.90;;;;;;5094388;28;20418;-62
2020/12/16 09:24:27;;;;;;;9.17;6.70;;;10.20;99.90;;;;;;5094959;28;20453;-61
2020/12/16 09:26:56;;;;;;;7.13;6.53;;;10.20;99.90;;;;;;5089469;28;20439;-57
2020/12/16 09:29:27;;;;;;;10.93;6.53;;;10.30;99.90;;;;;;5087272;28;20211;-59
2020/12/16 09:32:07;;;;;;;7.03;6.33;;;10.40;99.90;;;;;;5086782;28;20427;-56
2020/12/16 09:34:41;;;;;;;7.67;6.90;;;10.50;99.90;;;;;;5094515;28;20446;-59
2020/12/16 09:37:34;;;;;;;7.97;7.10;;;10.60;99.90;;;;;;5094388;28;20436;-59
2020/12/16 09:40:11;;;;;;;7.43;6.73;;;10.80;99.90;;;;;;5094556;28;20475;-61
2020/12/16 09:42:37;;;;;;;7.63;6.87;;;11.00;99.90;;;;;;5094889;28;20797;-60
2020/12/16 09:45:21;;;;;;;7.37;6.67;;;11.20;99.90;;;;;;5095031;28;20771;-59
2020/12/16 09:47:49;;;;;;;7.60;6.90;;;11.10;99.90;;;;;;5094359;28;20441;-59
2020/12/16 09:50:16;;;;;;;10.10;7.70;;;11.20;99.90;;;;;;5076029;28;20419;-58
2020/12/16 09:52:41;;;;;;;9.27;6.70;;;11.30;99.90;;;;;;5075279;28;20417;-59
2020/12/16 09:55:37;;;;;;;7.43;6.73;;;11.40;99.90;;;;;;5078837;28;20459;-60
2020/12/16 09:58:04;;;;;;;8.00;7.20;;;11.40;99.90;;;;;;5075443;28;20217;-58
2020/12/16 10:00:31;;;;;;;7.80;7.10;;;11.50;99.90;;;;;;5078068;28;20487;-59
2020/12/16 10:03:01;;;;;;;6.73;6.10;;;11.50;99.90;;;;;;5086850;28;20436;-59
2020/12/16 10:05:28;;;;;;;9.87;7.10;;;11.40;99.90;;;;;;5078336;28;20482;-60
2020/12/16 10:07:54;;;;;;;11.07;7.10;;;11.30;99.90;;;;;;5076287;28;20514;-59
2020/12/16 10:10:20;;;;;;;7.30;6.60;;;11.20;99.90;;;;;;5077258;28;20403;-60
2020/12/16 10:12:46;;;;;;;9.20;7.47;;;11.20;99.90;;;;;;5076478;28;20406;-59
2020/12/16 10:15:12;;;;;;;8.13;7.33;;;11.00;99.90;;;;;;5076427;28;20514;-57
2020/12/16 10:17:37;;;;;;;7.53;6.83;;;10.90;99.90;;;;;;5077677;28;20196;-58
2020/12/16 10:20:05;;;;;;;9.10;7.33;;;10.90;99.90;;;;;;5097139;28;20710;-60
2020/12/16 10:22:31;;;;;;;7.87;6.90;;;11.00;99.90;;;;;;5096118;28;20263;-60
2020/12/16 10:24:56;;;;;;;8.90;8.00;;;11.00;99.90;;;;;;5095570;28;20431;-60
2020/12/16 10:27:22;;;;;;;9.00;7.97;;;11.10;99.90;;;;;;5084908;28;20225;-58
2020/12/16 10:29:48;;;;;;;7.13;6.53;;;11.30;99.90;;;;;;5076638;28;20195;-59
2020/12/16 10:32:14;;;;;;;7.47;6.67;;;11.30;99.90;;;;;;5076318;28;20677;-58
2020/12/16 10:34:40;;;;;;;9.20;8.03;;;11.10;99.90;;;;;;5075913;28;20271;-59
2020/12/16 10:37:06;;;;;;;8.40;7.60;;;11.20;99.90;;;;;;5076489;28;20429;-57
2020/12/16 10:39:32;;;;;;;11.47;10.33;;;11.40;99.90;;;;;;5090694;28;20659;-59
2020/12/16 10:41:58;;;;;;;10.40;9.07;;;11.20;99.90;;;;;;5097468;28;20165;-59
2020/12/16 10:44:25;;;;;;;12.60;9.70;;;11.20;99.90;;;;;;5096918;28;20205;-58
2020/12/16 10:46:54;;;;;;;10.37;8.43;;;11.20;99.90;;;;;;5096755;28;20507;-61
2020/12/16 10:49:23;;;;;;;10.97;9.93;;;11.20;99.90;;;;;;5098652;28;20415;-57
2020/12/16 10:51:50;;;;;;;12.00;9.90;;;11.50;99.90;;;;;;5097579;28;20411;-59
2020/12/16 10:54:15;;;;;;;10.50;9.40;;;11.60;99.90;;;;;;5096942;28;20576;-58
2020/12/16 10:56:41;;;;;;;10.50;8.80;;;12.40;99.90;;;;;;5095498;28;20439;-58
2020/12/16 10:59:07;;;;;;;11.87;10.00;;;13.90;99.90;;;;;;5097176;28;20166;-59
2020/12/16 11:01:37;;;;;;;10.07;8.87;;;15.80;99.90;;;;;;5096869;28;20179;-60
2020/12/16 11:04:08;;;;;;;9.70;8.60;;;17.00;99.90;;;;;;5097313;28;20266;-58
2020/12/16 11:06:35;;;;;;;10.83;9.73;;;18.80;99.90;;;;;;5095298;28;20416;-56
2020/12/16 11:09:01;;;;;;;9.73;8.07;;;19.90;99.50;;;;;;5096676;28;20424;-59
2020/12/16 11:11:27;;;;;;;10.50;7.63;;;20.60;98.30;;;;;;5096928;28;20418;-60
2020/12/16 11:13:53;;;;;;;9.50;8.33;;;20.50;97.90;;;;;;5095762;28;20459;-61
2020/12/16 11:16:19;;;;;;;10.00;9.00;;;21.00;96.70;;;;;;5096977;28;20176;-59
2020/12/16 11:18:48;;;;;;;11.63;8.53;;;21.60;95.90;;;;;;5089804;28;20208;-58
2020/12/16 11:21:13;;;;;;;8.97;8.17;;;22.30;94.20;;;;;;5082086;28;20447;-58
2020/12/16 11:23:40;;;;;;;10.47;8.43;;;23.00;93.20;;;;;;5097856;28;20415;-59
2020/12/16 11:26:06;;;;;;;7.97;7.37;;;22.90;92.30;;;;;;5089048;28;20299;-59
2020/12/16 11:28:31;;;;;;;10.43;7.70;;;23.70;91.50;;;;;;5088784;28;20479;-60
2020/12/16 11:30:59;;;;;;;12.73;8.47;;;24.10;90.00;;;;;;5077731;28;20808;-58
2020/12/16 11:33:25;;;;;;;8.63;7.83;;;24.10;88.80;;;;;;5092920;28;20200;-59
2020/12/16 11:35:50;;;;;;;9.27;8.23;;;24.00;87.80;;;;;;5094915;28;20399;-59
2020/12/16 11:38:16;;;;;;;7.40;6.73;;;24.30;87.60;;;;;;5086371;28;20201;-60
2020/12/16 11:40:42;;;;;;;7.90;7.20;;;25.00;85.70;;;;;;5074808;28;20166;-60
2020/12/16 11:43:07;;;;;;;9.60;7.13;;;25.80;83.60;;;;;;5075665;28;20223;-60
2020/12/16 11:45:33;;;;;;;9.77;8.87;;;26.50;81.10;;;;;;5073882;28;20163;-60
2020/12/16 11:48:00;;;;;;;8.33;7.43;;;26.70;78.10;;;;;;5091424;28;20192;-61
2020/12/16 11:50:26;;;;;;;6.83;5.87;;;26.20;79.00;;;;;;5093154;28;20649;-58
2020/12/16 11:52:52;;;;;;;12.07;10.97;;;26.40;76.30;;;;;;5093960;28;20538;-60
2020/12/16 11:55:17;;;;;;;11.13;10.00;;;26.10;79.00;;;;;;5094403;28;20201;-59
2020/12/16 11:57:43;;;;;;;7.70;7.00;;;25.30;79.50;;;;;;5081075;28;20289;-59
2020/12/16 12:00:08;;;;;;;9.37;7.50;;;24.20;83.20;;;;;;5074539;28;20174;-59
2020/12/16 12:02:34;;;;;;;8.70;8.00;;;24.10;83.60;;;;;;5074888;28;20173;-59
2020/12/16 12:05:01;;;;;;;7.00;6.40;;;24.30;82.00;;;;;;5077766;28;20193;-58
2020/12/16 12:07:26;;;;;;;11.20;9.10;;;24.80;81.50;;;;;;5080332;28;20197;-62
2020/12/16 12:09:52;;;;;;;7.67;6.97;;;25.30;79.10;;;;;;5094281;28;20415;-61
2020/12/16 12:12:17;;;;;;;7.93;7.10;;;25.80;80.10;;;;;;5121449;28;20168;-58
2020/12/16 12:14:43;;;;;;;7.20;6.60;;;25.80;77.20;;;;;;5109384;28;20181;-60
2020/12/16 12:17:09;;;;;;;9.13;8.23;;;25.80;77.60;;;;;;5100641;28;20193;-58
2020/12/16 12:19:35;;;;;;;6.90;6.30;;;26.10;75.60;;;;;;5100581;28;20276;-58
2020/12/16 12:22:01;;;;;;;7.37;6.67;;;24.60;78.00;;;;;;5098750;28;20207;-56
2020/12/16 12:24:26;;;;;;;7.70;7.00;;;25.10;78.10;;;;;;5101283;28;20522;-59
2020/12/16 12:26:52;;;;;;;7.13;6.47;;;24.60;78.60;;;;;;5094970;28;20194;-60
2020/12/16 12:29:18;;;;;;;7.87;7.10;;;22.60;83.30;;;;;;5081515;28;20232;-59
2020/12/16 12:31:44;;;;;;;8.30;7.50;;;21.40;86.40;;;;;;5080643;28;20177;-59
2020/12/16 12:34:11;;;;;;;7.90;7.20;;;20.10;90.00;;;;;;5079975;28;20177;-59
2020/12/16 12:36:37;;;;;;;7.47;6.77;;;18.80;93.20;;;;;;5080558;28;20429;-56
2020/12/16 12:39:04;;;;;;;10.53;9.53;;;17.80;95.60;;;;;;5081491;28;20788;-57
2020/12/16 12:41:29;;;;;;;9.30;8.30;;;16.90;98.10;;;;;;5080985;28;20495;-54
2020/12/16 12:43:55;;;;;;;9.20;8.30;;;16.30;99.90;;;;;;5081677;28;20491;-58
2020/12/16 12:46:20;;;;;;;9.00;8.20;;;15.80;99.90;;;;;;5081373;28;20169;-58